Time;durP1;ratioP1;P1;durP2;ratioP2;P2;SDS_P1;SDS_P2;PMS_P1;PMS_P2;Temp;Humidity;BMP_temperature;BMP_pressure;BME280_temperature;BME280_humidity;BME280_pressure;Samples;Min_cycle;Max_cycle;Signal;HPM_P1;HPM_P2
2022/02/14 00:01:45;;;;;;;8.50;5.60;;;7.40;40.40;;;;;;5117486;28;20521;-45
2022/02/14 00:04:10;;;;;;;6.10;5.50;;;7.40;40.50;;;;;;5120858;28;20418;-43
2022/02/14 00:06:36;;;;;;;5.57;4.97;;;7.40;40.50;;;;;;5120820;28;20433;-43
2022/02/14 00:09:02;;;;;;;6.93;6.20;;;7.40;40.60;;;;;;5119352;28;20215;-43
2022/02/14 00:11:28;;;;;;;6.83;5.33;;;7.30;40.50;;;;;;5119567;28;20172;-43
2022/02/14 00:13:53;;;;;;;5.73;4.50;;;7.30;40.60;;;;;;5117784;28;20908;-43
2022/02/14 00:16:19;;;;;;;5.67;5.03;;;7.30;40.60;;;;;;5119570;28;20242;-44
2022/02/14 00:18:45;;;;;;;4.90;4.40;;;7.30;40.50;;;;;;5117420;28;20524;-43
2022/02/14 00:21:10;;;;;;;7.17;5.27;;;7.30;40.50;;;;;;5119749;28;20328;-44
2022/02/14 00:23:36;;;;;;;6.97;5.30;;;7.30;40.50;;;;;;5118864;28;20306;-44
2022/02/14 00:26:02;;;;;;;5.97;5.00;;;7.20;40.30;;;;;;5117144;28;20245;-44
2022/02/14 00:28:28;;;;;;;7.43;4.90;;;7.30;40.40;;;;;;5117221;28;20213;-44
2022/02/14 00:30:54;;;;;;;6.30;5.20;;;7.20;40.20;;;;;;5119768;28;20414;-44
2022/02/14 00:33:20;;;;;;;6.70;5.33;;;7.20;40.10;;;;;;5118152;28;20437;-44
2022/02/14 00:35:47;;;;;;;6.70;5.00;;;7.20;40.00;;;;;;5119257;28;20268;-44
2022/02/14 00:38:15;;;;;;;5.47;4.33;;;7.20;39.90;;;;;;5117643;28;20429;-44
2022/02/14 00:40:40;;;;;;;6.90;4.73;;;7.20;39.80;;;;;;5119145;28;20272;-44
2022/02/14 00:43:06;;;;;;;4.43;4.03;;;7.20;39.70;;;;;;5117958;28;20954;-44
2022/02/14 00:45:32;;;;;;;5.70;4.67;;;7.20;39.60;;;;;;5119105;28;20429;-44
2022/02/14 00:47:58;;;;;;;6.03;4.57;;;7.20;39.40;;;;;;5119515;28;20274;-44
2022/02/14 00:50:24;;;;;;;6.60;4.70;;;7.20;39.30;;;;;;5118148;28;20249;-44
2022/02/14 00:52:49;;;;;;;4.10;3.70;;;7.10;39.20;;;;;;5118805;28;20422;-44
2022/02/14 00:55:16;;;;;;;9.30;4.20;;;7.10;39.10;;;;;;5118335;28;20426;-42
2022/02/14 00:57:42;;;;;;;4.87;4.40;;;7.10;39.00;;;;;;5117849;28;20729;-44
2022/02/14 01:00:11;;;;;;;5.23;4.10;;;7.20;39.00;;;;;;5117667;28;20422;-44
2022/02/14 01:02:37;;;;;;;5.83;4.30;;;7.10;38.80;;;;;;5117295;28;20906;-44
2022/02/14 01:05:05;;;;;;;5.20;4.27;;;7.10;38.70;;;;;;5116988;28;20677;-44
2022/02/14 01:07:31;;;;;;;5.47;4.20;;;7.10;38.60;;;;;;5116870;28;20428;-44
2022/02/14 01:09:56;;;;;;;4.63;3.90;;;7.20;38.50;;;;;;5115424;28;20429;-44
2022/02/14 01:12:23;;;;;;;4.77;3.93;;;7.20;38.40;;;;;;5117504;28;20478;-43
2022/02/14 01:14:49;;;;;;;6.67;4.13;;;7.20;38.30;;;;;;5116201;28;20577;-44
2022/02/14 01:17:14;;;;;;;6.67;3.80;;;7.20;38.20;;;;;;5116918;28;20418;-43
2022/02/14 01:19:40;;;;;;;4.47;3.80;;;7.20;38.10;;;;;;5117365;28;20326;-44
2022/02/14 01:22:06;;;;;;;7.40;3.87;;;7.20;38.10;;;;;;5118512;28;20306;-44
2022/02/14 01:24:32;;;;;;;3.93;3.53;;;7.20;38.00;;;;;;5117726;28;20193;-44
2022/02/14 01:26:57;;;;;;;4.37;3.40;;;7.30;38.00;;;;;;5118625;28;20539;-44
2022/02/14 01:29:23;;;;;;;4.83;3.70;;;7.30;38.00;;;;;;5118499;28;20176;-44
2022/02/14 01:31:49;;;;;;;4.07;3.63;;;7.30;37.90;;;;;;5117320;28;20559;-44
2022/02/14 01:34:16;;;;;;;3.90;3.43;;;7.30;37.80;;;;;;5118407;28;20417;-44
2022/02/14 01:36:42;;;;;;;5.93;3.13;;;7.40;37.70;;;;;;5117373;28;20444;-44
2022/02/14 01:39:08;;;;;;;4.83;3.17;;;7.40;37.60;;;;;;5118629;28;20402;-44
2022/02/14 01:41:33;;;;;;;4.13;3.73;;;7.40;37.50;;;;;;5116150;28;20184;-44
2022/02/14 01:43:59;;;;;;;4.77;3.20;;;7.40;37.40;;;;;;5118475;28;20483;-44
2022/02/14 01:46:25;;;;;;;3.90;3.40;;;7.40;37.30;;;;;;5117510;28;20195;-44
2022/02/14 01:48:51;;;;;;;4.37;3.87;;;7.40;37.20;;;;;;5118450;28;20562;-44
2022/02/14 01:51:16;;;;;;;4.70;3.50;;;7.50;37.20;;;;;;5120496;28;20179;-44
2022/02/14 01:53:42;;;;;;;3.60;3.00;;;7.50;37.10;;;;;;5122998;28;20187;-44
2022/02/14 01:56:08;;;;;;;5.43;3.50;;;7.50;36.90;;;;;;5120635;28;20207;-44
2022/02/14 01:58:34;;;;;;;3.50;3.20;;;7.50;36.80;;;;;;5104563;28;20417;-44
2022/02/14 02:00:59;;;;;;;4.47;3.40;;;7.50;36.70;;;;;;5121777;28;20895;-43
2022/02/14 02:03:25;;;;;;;3.67;3.20;;;7.50;36.60;;;;;;5122207;28;20678;-44
2022/02/14 02:05:51;;;;;;;3.60;3.30;;;7.60;36.60;;;;;;5121013;28;20509;-45
2022/02/14 02:08:17;;;;;;;3.63;3.00;;;7.60;36.50;;;;;;5120180;28;20430;-44
2022/02/14 02:10:43;;;;;;;3.50;2.77;;;7.60;36.40;;;;;;5102078;28;20433;-44
2022/02/14 02:13:08;;;;;;;3.87;2.87;;;7.60;36.20;;;;;;5120315;28;20251;-44
2022/02/14 02:15:37;;;;;;;3.60;3.20;;;7.60;36.10;;;;;;5120770;28;20195;-44
2022/02/14 02:18:05;;;;;;;3.57;2.90;;;7.60;36.00;;;;;;5119191;28;20243;-44
2022/02/14 02:20:31;;;;;;;4.27;3.23;;;7.60;35.90;;;;;;5121433;28;20401;-44
2022/02/14 02:23:41;;;;;;;4.13;3.10;;;7.60;35.80;;;;;;5120433;28;20555;-45
2022/02/14 02:26:07;;;;;;;5.00;3.37;;;7.60;35.60;;;;;;5102985;28;20512;-45
2022/02/14 02:28:33;;;;;;;3.67;3.00;;;7.60;35.40;;;;;;5121731;28;20436;-45
2022/02/14 02:31:03;;;;;;;3.30;2.90;;;7.60;35.40;;;;;;5120361;28;20160;-45
2022/02/14 02:33:33;;;;;;;3.50;2.90;;;7.60;35.20;;;;;;5104024;28;20413;-44
2022/02/14 02:35:59;;;;;;;4.10;3.13;;;7.70;35.20;;;;;;5102648;28;20425;-45
2022/02/14 02:38:25;;;;;;;4.23;2.97;;;7.60;35.00;;;;;;5121677;28;20418;-44
2022/02/14 02:40:51;;;;;;;3.57;2.67;;;7.60;35.00;;;;;;5120799;28;20410;-45
2022/02/14 02:43:18;;;;;;;3.67;3.00;;;7.60;35.00;;;;;;5121799;28;20469;-45
2022/02/14 02:45:45;;;;;;;5.33;2.93;;;7.60;34.90;;;;;;5121476;28;20173;-44
2022/02/14 02:48:11;;;;;;;3.70;3.20;;;7.60;35.00;;;;;;5121862;28;20421;-45
2022/02/14 02:51:01;;;;;;;3.77;3.07;;;7.60;35.00;;;;;;5121421;28;20694;-44
2022/02/14 02:53:22;;;;;;;5.93;3.07;;;7.60;35.00;;;;;;5121229;28;20486;-45
2022/02/14 02:55:48;;;;;;;3.17;2.87;;;7.50;34.90;;;;;;5119791;28;20417;-45
2022/02/14 02:58:13;;;;;;;4.47;2.87;;;7.50;34.80;;;;;;5120811;28;20586;-44
2022/02/14 03:00:39;;;;;;;3.57;2.80;;;7.50;34.70;;;;;;5120485;28;20237;-45
2022/02/14 03:03:05;;;;;;;2.83;2.53;;;7.50;34.70;;;;;;5118690;28;20265;-44
2022/02/14 03:05:31;;;;;;;6.80;3.67;;;7.50;34.70;;;;;;5120623;28;20180;-44
2022/02/14 03:07:56;;;;;;;3.47;2.60;;;7.40;34.60;;;;;;5119103;28;20410;-44
2022/02/14 03:10:22;;;;;;;4.00;2.80;;;7.50;34.70;;;;;;5121179;28;20276;-44
2022/02/14 03:12:47;;;;;;;3.80;2.90;;;7.40;34.70;;;;;;5101087;28;20274;-45
2022/02/14 03:15:13;;;;;;;3.33;2.50;;;7.40;34.70;;;;;;5120938;28;20237;-45
2022/02/14 03:17:39;;;;;;;4.03;2.40;;;7.40;34.70;;;;;;5120641;28;20239;-44
2022/02/14 03:20:05;;;;;;;3.00;2.53;;;7.40;34.70;;;;;;5121110;28;20188;-45
2022/02/14 03:22:31;;;;;;;3.20;2.90;;;7.40;34.70;;;;;;5120057;28;20273;-45
2022/02/14 03:24:56;;;;;;;3.10;2.50;;;7.30;34.60;;;;;;5121134;28;20840;-44
2022/02/14 03:27:22;;;;;;;3.73;2.90;;;7.30;34.60;;;;;;5119030;28;20172;-45
2022/02/14 03:29:47;;;;;;;3.00;2.70;;;7.30;34.70;;;;;;5120713;28;20169;-44
2022/02/14 03:32:13;;;;;;;2.50;2.20;;;7.30;34.70;;;;;;5119817;28;20184;-45
2022/02/14 03:34:39;;;;;;;3.93;3.00;;;7.30;34.60;;;;;;5120640;28;20173;-45
2022/02/14 03:37:04;;;;;;;3.73;2.83;;;7.30;34.60;;;;;;5119672;28;20180;-45
2022/02/14 03:39:30;;;;;;;3.70;2.47;;;7.20;34.50;;;;;;5120501;28;20183;-45
2022/02/14 03:41:56;;;;;;;4.07;3.33;;;7.20;34.40;;;;;;5118981;28;20173;-43
2022/02/14 03:44:22;;;;;;;2.93;2.50;;;7.20;34.40;;;;;;5120599;28;20184;-45
2022/02/14 03:46:47;;;;;;;3.13;2.60;;;7.20;34.40;;;;;;5119689;28;20425;-45
2022/02/14 03:49:13;;;;;;;3.57;2.97;;;7.20;34.40;;;;;;5120143;28;20202;-45
2022/02/14 03:51:39;;;;;;;3.07;2.73;;;7.10;34.40;;;;;;5118086;28;20550;-45
2022/02/14 03:54:05;;;;;;;3.00;2.20;;;7.10;34.30;;;;;;5119661;28;20191;-45
2022/02/14 03:56:30;;;;;;;5.03;2.80;;;7.10;34.40;;;;;;5119507;28;20187;-45
2022/02/14 03:58:57;;;;;;;4.43;2.70;;;7.10;34.40;;;;;;5102854;28;20230;-45
2022/02/14 04:01:23;;;;;;;2.77;2.20;;;7.10;34.40;;;;;;5100879;28;20463;-45
2022/02/14 04:03:49;;;;;;;3.67;2.60;;;7.10;34.40;;;;;;5120008;28;20546;-46
2022/02/14 04:06:14;;;;;;;3.40;2.60;;;7.00;34.30;;;;;;5100763;28;20183;-45
2022/02/14 04:08:40;;;;;;;2.40;2.20;;;7.00;34.40;;;;;;5120347;28;20920;-45
2022/02/14 04:11:06;;;;;;;2.97;2.10;;;7.00;34.40;;;;;;5100255;28;20558;-45
2022/02/14 04:13:31;;;;;;;2.67;1.87;;;7.00;34.40;;;;;;5119703;28;20721;-45
2022/02/14 04:15:57;;;;;;;2.77;2.33;;;7.00;34.50;;;;;;5119856;28;20182;-45
2022/02/14 04:18:23;;;;;;;2.90;2.43;;;7.00;34.50;;;;;;5120090;28;20655;-45
2022/02/14 04:20:48;;;;;;;2.30;2.10;;;6.90;34.50;;;;;;5118882;28;20222;-45
2022/02/14 04:23:14;;;;;;;6.73;3.07;;;6.90;34.50;;;;;;5101769;28;20218;-45
2022/02/14 04:25:40;;;;;;;4.53;2.93;;;6.90;34.50;;;;;;5101437;28;20172;-45
2022/02/14 04:28:05;;;;;;;3.30;3.00;;;6.90;34.60;;;;;;5117532;28;20180;-47
2022/02/14 04:30:31;;;;;;;3.03;2.57;;;6.80;34.60;;;;;;5118628;28;20502;-45
2022/02/14 04:33:00;;;;;;;3.27;2.73;;;6.80;34.70;;;;;;5118257;28;20687;-45
2022/02/14 04:35:28;;;;;;;3.03;2.40;;;6.80;34.80;;;;;;5118984;28;20226;-45
2022/02/14 04:37:54;;;;;;;3.70;2.20;;;6.70;34.90;;;;;;5118899;28;20444;-45
2022/02/14 04:40:21;;;;;;;4.97;3.03;;;6.70;35.00;;;;;;5118955;28;20484;-45
2022/02/14 04:42:47;;;;;;;3.37;2.80;;;6.70;35.10;;;;;;5117616;28;20875;-45
2022/02/14 04:45:13;;;;;;;4.30;3.10;;;6.70;35.10;;;;;;5118445;28;20429;-45
2022/02/14 04:47:38;;;;;;;3.97;2.80;;;6.60;35.10;;;;;;5117611;28;20266;-45
2022/02/14 04:50:05;;;;;;;4.33;3.03;;;6.60;35.20;;;;;;5118910;28;20188;-45
2022/02/14 04:52:31;;;;;;;3.10;2.70;;;6.60;35.20;;;;;;5117236;28;20183;-45
2022/02/14 04:54:57;;;;;;;2.80;2.17;;;6.50;35.20;;;;;;5118353;28;20418;-45
2022/02/14 04:57:22;;;;;;;3.10;2.53;;;6.50;35.20;;;;;;5117711;28;20457;-45
2022/02/14 04:59:48;;;;;;;6.30;2.60;;;6.50;35.30;;;;;;5119342;28;20535;-45
2022/02/14 05:02:13;;;;;;;3.20;2.03;;;6.50;35.30;;;;;;5118246;28;20208;-48
2022/02/14 05:04:39;;;;;;;2.83;2.47;;;6.40;35.30;;;;;;5119045;28;20172;-47
2022/02/14 05:07:05;;;;;;;3.30;2.83;;;6.40;35.30;;;;;;5117584;28;20180;-48
2022/02/14 05:09:31;;;;;;;3.57;2.40;;;6.40;35.40;;;;;;5118783;28;20176;-48
2022/02/14 05:11:56;;;;;;;3.03;2.60;;;6.40;35.40;;;;;;5117454;28;20183;-48
2022/02/14 05:14:22;;;;;;;2.93;2.63;;;6.40;35.50;;;;;;5118402;28;20186;-40
2022/02/14 05:16:48;;;;;;;3.23;2.40;;;6.40;35.40;;;;;;5117634;28;20172;-39
2022/02/14 05:19:13;;;;;;;3.00;2.37;;;6.40;35.40;;;;;;5117812;28;20231;-39
2022/02/14 05:21:39;;;;;;;2.83;2.23;;;6.40;35.40;;;;;;5098592;28;20168;-40
2022/02/14 05:24:05;;;;;;;3.37;2.40;;;6.40;35.50;;;;;;5117274;28;20234;-41
2022/02/14 05:26:31;;;;;;;3.30;2.80;;;6.30;35.40;;;;;;5116294;28;20184;-40
2022/02/14 05:28:56;;;;;;;4.73;3.00;;;6.40;35.50;;;;;;5116794;28;20406;-42
2022/02/14 05:31:26;;;;;;;3.00;2.30;;;6.30;35.50;;;;;;5115298;28;20584;-40
2022/02/14 05:33:52;;;;;;;3.33;2.50;;;6.30;36.00;;;;;;5116544;28;20172;-40
2022/02/14 05:36:19;;;;;;;2.90;2.53;;;6.30;35.60;;;;;;5115755;28;20434;-40
2022/02/14 05:38:45;;;;;;;3.10;2.60;;;6.30;35.60;;;;;;5114876;28;20189;-39
2022/02/14 05:41:10;;;;;;;3.23;2.57;;;6.30;35.70;;;;;;5096511;28;20426;-40
2022/02/14 05:43:36;;;;;;;2.90;2.33;;;6.20;35.60;;;;;;5115624;28;20534;-40
2022/02/14 05:46:02;;;;;;;4.83;2.60;;;6.30;35.80;;;;;;5114833;28;20320;-40
2022/02/14 05:48:27;;;;;;;3.63;2.50;;;6.20;35.90;;;;;;5115475;28;20165;-41
2022/02/14 05:50:53;;;;;;;3.77;2.80;;;6.20;35.90;;;;;;5113445;28;20169;-42
2022/02/14 05:53:19;;;;;;;3.57;2.43;;;6.20;36.00;;;;;;5098039;28;20172;-41
2022/02/14 05:55:45;;;;;;;4.00;2.87;;;6.20;36.10;;;;;;5114229;28;20472;-41
2022/02/14 05:58:10;;;;;;;3.93;2.70;;;6.20;36.10;;;;;;5114836;28;20422;-41
2022/02/14 06:00:36;;;;;;;3.77;2.53;;;6.20;36.20;;;;;;5115606;28;20176;-42
2022/02/14 06:03:02;;;;;;;3.40;2.50;;;6.20;36.30;;;;;;5114958;28;20271;-41
2022/02/14 06:05:27;;;;;;;3.80;2.80;;;6.20;36.30;;;;;;5116757;28;20212;-42
2022/02/14 06:07:56;;;;;;;4.30;2.50;;;6.20;36.40;;;;;;5114897;28;20164;-41
2022/02/14 06:10:22;;;;;;;4.63;2.93;;;6.20;36.40;;;;;;5116014;28;20589;-41
2022/02/14 06:12:47;;;;;;;3.70;2.43;;;6.20;36.40;;;;;;5114002;28;20426;-40
2022/02/14 06:15:13;;;;;;;4.13;2.77;;;6.20;36.50;;;;;;5098649;28;20191;-40
2022/02/14 06:17:39;;;;;;;3.90;2.70;;;6.20;36.60;;;;;;5115675;28;20223;-41
2022/02/14 06:20:06;;;;;;;5.83;2.70;;;6.20;36.70;;;;;;5112323;28;20176;-41
2022/02/14 06:22:32;;;;;;;3.83;3.03;;;6.30;36.80;;;;;;5095989;28;20210;-40
2022/02/14 06:24:58;;;;;;;4.40;2.73;;;6.30;36.90;;;;;;5113301;28;20418;-43
2022/02/14 06:27:23;;;;;;;4.13;3.50;;;6.20;36.90;;;;;;5115219;28;20196;-42
2022/02/14 06:29:49;;;;;;;3.30;2.70;;;6.20;36.90;;;;;;5113729;28;20188;-43
2022/02/14 06:32:14;;;;;;;4.70;2.87;;;6.30;37.10;;;;;;5114187;28;20188;-41
2022/02/14 06:34:40;;;;;;;4.60;2.80;;;6.30;37.10;;;;;;5095048;28;20187;-40
2022/02/14 06:37:06;;;;;;;3.93;2.97;;;6.30;37.10;;;;;;5114202;28;20519;-40
2022/02/14 06:39:32;;;;;;;4.23;3.10;;;6.30;37.10;;;;;;5116220;28;20414;-42
2022/02/14 06:41:58;;;;;;;4.93;3.30;;;6.30;37.10;;;;;;5118431;28;20203;-40
2022/02/14 06:44:24;;;;;;;3.83;2.83;;;6.30;37.10;;;;;;5097249;28;20433;-42
2022/02/14 06:46:52;;;;;;;4.50;3.30;;;6.40;37.20;;;;;;5116445;28;20435;-41
2022/02/14 06:49:17;;;;;;;3.33;3.00;;;6.30;37.10;;;;;;5115423;28;20425;-40
2022/02/14 06:51:43;;;;;;;3.53;2.60;;;6.40;37.10;;;;;;5117756;28;21032;-42
2022/02/14 06:54:09;;;;;;;3.40;3.00;;;6.40;37.10;;;;;;5117160;28;20176;-42
2022/02/14 06:56:34;;;;;;;5.37;3.30;;;6.40;37.10;;;;;;5117910;28;20173;-41
2022/02/14 06:59:00;;;;;;;4.80;3.17;;;6.50;37.20;;;;;;5115209;28;20187;-40
2022/02/14 07:01:26;;;;;;;4.03;3.30;;;6.50;37.20;;;;;;5117357;28;20176;-41
2022/02/14 07:03:51;;;;;;;4.10;3.43;;;6.60;37.20;;;;;;5098681;28;20272;-40
2022/02/14 07:06:17;;;;;;;4.10;2.97;;;6.60;37.20;;;;;;5117956;28;20184;-41
2022/02/14 07:08:44;;;;;;;5.87;3.40;;;6.60;37.10;;;;;;5115776;28;20305;-40
2022/02/14 07:11:10;;;;;;;3.93;2.90;;;6.70;37.20;;;;;;5099327;28;20186;-42
2022/02/14 07:13:36;;;;;;;3.67;3.20;;;6.70;37.20;;;;;;5097802;27;20436;-41
2022/02/14 07:16:02;;;;;;;5.27;3.27;;;6.80;37.30;;;;;;5138221;27;20457;-41
2022/02/14 07:18:29;;;;;;;3.37;2.80;;;6.80;37.30;;;;;;5137859;27;20565;-42
2022/02/14 07:20:56;;;;;;;6.13;3.47;;;6.90;37.30;;;;;;5138931;27;20182;-41
2022/02/14 07:23:21;;;;;;;5.43;3.30;;;7.00;37.30;;;;;;5138280;27;20476;-40
2022/02/14 07:25:47;;;;;;;4.83;3.20;;;7.30;37.40;;;;;;5121702;27;20421;-44
2022/02/14 07:28:12;;;;;;;4.63;3.40;;;7.50;37.30;;;;;;5102644;27;20576;-41
2022/02/14 07:30:38;;;;;;;3.67;2.80;;;7.80;37.10;;;;;;5138386;27;20191;-41
2022/02/14 07:33:04;;;;;;;4.70;3.50;;;8.00;36.90;;;;;;5137926;27;20438;-41
2022/02/14 07:35:31;;;;;;;4.40;3.60;;;8.30;36.70;;;;;;5140110;27;20191;-41
2022/02/14 07:37:57;;;;;;;4.30;2.90;;;8.50;36.50;;;;;;5138754;27;20183;-40
2022/02/14 07:40:25;;;;;;;3.60;2.80;;;8.70;36.30;;;;;;5140201;27;20420;-42
2022/02/14 07:42:50;;;;;;;3.37;2.67;;;9.00;36.20;;;;;;5136988;27;20888;-41
2022/02/14 07:45:16;;;;;;;6.70;3.97;;;9.20;36.00;;;;;;5138618;27;20468;-41
2022/02/14 07:47:42;;;;;;;4.70;3.60;;;9.40;35.90;;;;;;5138326;27;20159;-41
2022/02/14 07:50:11;;;;;;;3.80;3.37;;;9.60;35.70;;;;;;5119034;27;20176;-42
2022/02/14 07:52:37;;;;;;;3.67;3.27;;;9.80;35.50;;;;;;5138911;27;20592;-41
2022/02/14 07:55:03;;;;;;;3.97;3.37;;;10.00;34.60;;;;;;5135888;27;20432;-42
2022/02/14 07:57:30;;;;;;;4.13;3.20;;;10.20;34.40;;;;;;5137556;27;20857;-42
2022/02/14 07:59:55;;;;;;;5.10;3.10;;;10.40;34.30;;;;;;5137215;27;20489;-40
2022/02/14 08:02:21;;;;;;;4.87;3.80;;;10.70;34.20;;;;;;5121151;27;20460;-41
2022/02/14 08:04:47;;;;;;;5.60;3.07;;;10.90;33.90;;;;;;5137800;27;20254;-41
2022/02/14 08:07:13;;;;;;;5.17;3.57;;;11.10;33.80;;;;;;5139933;27;20187;-43
2022/02/14 08:09:39;;;;;;;5.30;3.40;;;11.30;33.60;;;;;;5139440;27;20271;-41
2022/02/14 08:12:06;;;;;;;6.57;4.10;;;11.60;33.40;;;;;;5137671;27;20417;-41
2022/02/14 08:14:32;;;;;;;4.33;3.30;;;11.70;33.10;;;;;;5138146;27;20445;-41
2022/02/14 08:16:58;;;;;;;4.20;3.07;;;11.90;32.80;;;;;;5135768;27;20780;-44
2022/02/14 08:19:23;;;;;;;3.97;3.20;;;12.20;32.70;;;;;;5138138;27;20468;-41
2022/02/14 08:21:49;;;;;;;4.57;3.23;;;12.40;32.50;;;;;;5137589;27;20645;-42
2022/02/14 08:24:15;;;;;;;6.23;3.10;;;12.70;32.30;;;;;;5136714;27;20195;-41
2022/02/14 08:26:40;;;;;;;4.10;2.60;;;13.00;32.10;;;;;;5100548;27;20214;-39
2022/02/14 08:29:06;;;;;;;4.00;3.33;;;13.40;31.90;;;;;;5136568;27;20237;-42
2022/02/14 08:31:32;;;;;;;7.87;3.30;;;13.70;31.60;;;;;;5135932;27;20465;-45
2022/02/14 08:33:58;;;;;;;4.93;3.33;;;14.10;31.30;;;;;;5137413;27;20175;-42
2022/02/14 08:36:25;;;;;;;4.33;2.90;;;14.40;31.00;;;;;;5137082;27;20258;-41
2022/02/14 08:38:52;;;;;;;3.87;2.80;;;14.80;30.70;;;;;;5121002;27;20436;-44
2022/02/14 08:41:18;;;;;;;10.43;3.40;;;15.20;30.60;;;;;;5137854;27;20429;-43
2022/02/14 08:43:44;;;;;;;6.23;3.50;;;15.50;30.20;;;;;;5120912;27;20883;-42
2022/02/14 08:46:10;;;;;;;4.30;3.10;;;15.60;29.90;;;;;;5137992;27;20520;-42
2022/02/14 08:48:36;;;;;;;4.63;3.30;;;15.40;29.80;;;;;;5139271;27;20163;-43
2022/02/14 08:51:04;;;;;;;5.53;3.03;;;15.20;29.70;;;;;;5134780;27;20846;-42
2022/02/14 08:53:33;;;;;;;6.13;3.43;;;15.00;29.90;;;;;;5137664;27;20569;-42
2022/02/14 08:56:00;;;;;;;4.37;2.77;;;14.60;30.00;;;;;;5135860;27;20518;-45
2022/02/14 08:58:26;;;;;;;4.70;3.17;;;14.50;30.20;;;;;;5135994;27;20412;-44
2022/02/14 09:00:51;;;;;;;4.57;3.17;;;14.80;30.50;;;;;;5134789;27;20428;-41
2022/02/14 09:03:17;;;;;;;4.20;2.87;;;15.30;30.70;;;;;;5118594;27;20206;-42
2022/02/14 09:05:43;;;;;;;4.83;2.77;;;15.90;30.60;;;;;;5135323;27;20198;-41
2022/02/14 09:08:09;;;;;;;4.50;3.10;;;16.60;30.20;;;;;;5135529;27;20178;-42
2022/02/14 09:10:35;;;;;;;4.23;2.93;;;17.30;29.80;;;;;;5136067;27;20178;-41
2022/02/14 09:13:01;;;;;;;8.80;3.90;;;18.00;29.50;;;;;;5137609;27;20413;-41
2022/02/14 09:15:26;;;;;;;5.00;3.33;;;18.80;29.20;;;;;;5134620;27;20842;-42
2022/02/14 09:17:52;;;;;;;3.50;3.20;;;19.40;28.60;;;;;;5136074;27;20494;-41
2022/02/14 09:20:23;;;;;;;3.50;3.07;;;19.80;28.40;;;;;;5134971;27;20254;-42
2022/02/14 09:22:50;;;;;;;4.33;3.17;;;19.80;28.00;;;;;;5117858;27;20307;-42
2022/02/14 09:25:16;;;;;;;7.43;3.40;;;20.20;28.20;;;;;;5134682;27;20474;-41
2022/02/14 09:27:42;;;;;;;4.00;3.27;;;20.40;28.10;;;;;;5118467;27;20401;-42
2022/02/14 09:30:07;;;;;;;4.30;3.60;;;20.40;28.00;;;;;;5134892;27;20486;-47
2022/02/14 09:32:33;;;;;;;6.27;3.10;;;20.10;27.90;;;;;;5136378;27;20530;-43
2022/02/14 09:34:59;;;;;;;3.10;2.80;;;19.90;28.00;;;;;;5134388;27;20442;-41
2022/02/14 09:37:25;;;;;;;3.50;2.80;;;19.70;28.10;;;;;;5136383;27;20238;-42
2022/02/14 09:39:51;;;;;;;3.30;2.90;;;19.40;28.10;;;;;;5100439;28;20473;-42
2022/02/14 09:42:17;;;;;;;5.50;3.10;;;19.10;28.30;;;;;;5137886;28;20204;-42
2022/02/14 09:44:43;;;;;;;4.63;4.10;;;18.80;28.40;;;;;;5137495;28;20838;-43
2022/02/14 09:47:10;;;;;;;5.90;3.70;;;18.60;28.60;;;;;;5136560;28;20416;-40
2022/02/14 09:49:37;;;;;;;4.37;2.93;;;18.40;28.80;;;;;;5137183;28;20463;-41
2022/02/14 09:52:03;;;;;;;4.23;3.07;;;18.40;29.00;;;;;;5137077;28;20472;-41
2022/02/14 09:54:30;;;;;;;3.57;3.10;;;18.40;29.00;;;;;;5137944;28;20421;-41
2022/02/14 09:56:56;;;;;;;3.50;2.80;;;18.30;29.10;;;;;;5135939;28;20714;-40
2022/02/14 09:59:22;;;;;;;3.63;3.10;;;18.10;29.10;;;;;;5119926;28;20423;-40
2022/02/14 10:01:48;;;;;;;4.30;2.97;;;17.90;29.20;;;;;;5136369;28;20421;-42
2022/02/14 10:04:14;;;;;;;5.73;3.50;;;17.70;29.40;;;;;;5119061;28;20469;-40
2022/02/14 10:06:42;;;;;;;4.03;3.00;;;17.50;29.60;;;;;;5136394;28;20276;-41
2022/02/14 10:09:24;;;;;;;6.63;3.77;;;17.30;29.90;;;;;;5136831;28;20477;-43
2022/02/14 10:12:19;;;;;;;4.30;3.20;;;17.20;30.10;;;;;;5136743;27;20449;-40
2022/02/14 10:14:45;;;;;;;3.87;2.90;;;17.10;30.30;;;;;;5117849;27;20425;-41
2022/02/14 10:17:22;;;;;;;4.63;2.90;;;17.20;30.50;;;;;;5116387;27;20464;-41
2022/02/14 10:19:58;;;;;;;4.10;3.00;;;17.10;30.70;;;;;;5138523;27;20446;-43
2022/02/14 10:22:25;;;;;;;3.73;2.93;;;17.00;31.00;;;;;;5140839;27;20476;-41
2022/02/14 10:24:50;;;;;;;5.27;2.60;;;17.00;31.10;;;;;;5121055;27;20410;-40
2022/02/14 10:27:18;;;;;;;4.03;2.50;;;17.10;31.30;;;;;;5122273;27;20861;-41
2022/02/14 10:29:44;;;;;;;6.33;3.67;;;17.20;31.50;;;;;;5121566;27;20858;-42
2022/02/14 10:32:23;;;;;;;3.40;2.87;;;17.20;31.80;;;;;;5139099;27;20855;-42
2022/02/14 10:34:54;;;;;;;4.67;2.70;;;17.30;32.00;;;;;;5139234;27;20422;-40
2022/02/14 10:37:37;;;;;;;3.73;3.33;;;17.40;32.20;;;;;;5120040;27;20528;-41
2022/02/14 10:40:04;;;;;;;3.23;2.40;;;17.50;32.50;;;;;;5136918;27;21338;-41
2022/02/14 10:42:35;;;;;;;3.70;3.03;;;17.60;32.80;;;;;;5138430;27;20852;-42
2022/02/14 10:45:09;;;;;;;3.50;2.47;;;17.70;32.90;;;;;;5137343;27;20409;-41
2022/02/14 10:47:44;;;;;;;5.50;2.90;;;18.00;32.90;;;;;;5120575;27;20419;-41
2022/02/14 10:50:18;;;;;;;5.03;2.70;;;18.60;32.80;;;;;;5137567;27;20417;-41
2022/02/14 10:52:53;;;;;;;4.37;2.50;;;19.10;32.50;;;;;;5139253;27;20449;-43
2022/02/14 10:55:42;;;;;;;4.90;2.87;;;19.60;32.10;;;;;;5139171;27;20473;-42
2022/02/14 10:58:08;;;;;;;4.10;2.43;;;20.10;31.80;;;;;;5140089;27;20428;-42
2022/02/14 11:00:38;;;;;;;3.40;2.27;;;20.80;31.90;;;;;;5138579;27;20523;-41
2022/02/14 11:03:11;;;;;;;5.60;2.33;;;21.10;31.40;;;;;;5120692;27;20500;-42
2022/02/14 11:05:38;;;;;;;4.93;2.50;;;21.30;31.00;;;;;;5137732;27;20500;-41
2022/02/14 11:08:04;;;;;;;5.23;2.47;;;21.40;30.80;;;;;;5117009;28;20489;-42
2022/02/14 11:10:31;;;;;;;3.13;2.40;;;21.40;30.80;;;;;;5134019;27;20424;-41
2022/02/14 11:12:59;;;;;;;2.90;2.50;;;21.60;30.90;;;;;;5140036;27;20439;-41
2022/02/14 11:15:27;;;;;;;3.80;2.63;;;21.60;30.90;;;;;;5136350;27;20959;-41
2022/02/14 11:18:13;;;;;;;3.93;2.60;;;21.40;30.90;;;;;;5119413;27;20925;-42
2022/02/14 11:20:40;;;;;;;6.20;2.33;;;21.10;31.20;;;;;;5137133;27;20671;-41
2022/02/14 11:23:11;;;;;;;2.90;2.43;;;20.60;31.50;;;;;;5138837;27;20503;-42
2022/02/14 11:25:48;;;;;;;5.20;2.90;;;20.30;31.80;;;;;;5121543;27;20418;-44
2022/02/14 11:28:18;;;;;;;4.30;2.80;;;19.90;32.00;;;;;;5138945;27;20420;-42
2022/02/14 11:31:05;;;;;;;4.63;2.20;;;19.50;32.30;;;;;;5119668;27;20832;-41
2022/02/14 11:33:31;;;;;;;2.67;2.40;;;19.30;32.60;;;;;;5103087;27;20456;-42
2022/02/14 11:36:00;;;;;;;3.53;2.60;;;19.10;32.90;;;;;;5139444;27;20463;-41
2022/02/14 11:38:42;;;;;;;4.40;2.40;;;18.90;33.00;;;;;;5139386;27;20204;-42
2022/02/14 11:41:27;;;;;;;3.40;2.10;;;18.70;33.30;;;;;;5119978;27;20839;-42
2022/02/14 11:43:55;;;;;;;5.60;2.63;;;18.50;33.60;;;;;;5138061;27;20514;-42
2022/02/14 11:46:27;;;;;;;5.03;2.50;;;18.40;33.80;;;;;;5137934;27;20482;-43
2022/02/14 11:49:02;;;;;;;2.40;2.13;;;18.30;34.00;;;;;;5135295;27;20525;-41
2022/02/14 11:51:53;;;;;;;4.90;2.90;;;18.20;34.10;;;;;;5134096;27;20428;-42
2022/02/14 11:54:39;;;;;;;4.37;2.10;;;18.10;34.60;;;;;;5135636;27;20453;-41
2022/02/14 11:57:17;;;;;;;3.77;2.10;;;18.20;34.70;;;;;;5116819;27;20838;-41
2022/02/14 11:59:44;;;;;;;3.47;2.30;;;18.20;34.60;;;;;;5138104;27;20417;-42
2022/02/14 12:02:11;;;;;;;3.93;2.23;;;18.30;34.80;;;;;;5137001;27;20451;-43
2022/02/14 12:04:42;;;;;;;5.50;3.10;;;18.80;37.10;;;;;;5119093;27;20448;-41
2022/02/14 12:07:20;;;;;;;3.13;2.10;;;19.70;37.10;;;;;;5137250;27;20432;-43
2022/02/14 12:09:58;;;;;;;2.50;1.70;;;21.00;35.80;;;;;;5120824;27;20750;-43
2022/02/14 12:12:42;;;;;;;6.67;1.70;;;21.70;34.30;;;;;;5137674;27;20451;-44
2022/02/14 12:20:44;;;;;;;2.90;1.80;;;21.80;34.70;;;;;;5136519;27;20497;-41
2022/02/14 12:23:11;;;;;;;5.00;2.23;;;21.50;35.20;;;;;;5118926;27;20919;-45
2022/02/14 12:25:47;;;;;;;4.07;2.05;;;21.00;34.30;;;;;;5100241;28;20506;-43
2022/02/14 12:28:13;;;;;;;2.83;2.33;;;19.70;34.50;;;;;;5115693;28;20190;-39
2022/02/14 12:30:46;;;;;;;2.93;2.07;;;19.60;34.90;;;;;;5098861;28;20459;-39
2022/02/14 12:33:13;;;;;;;3.67;1.80;;;19.30;35.20;;;;;;5114724;28;20474;-39
2022/02/14 12:35:41;;;;;;;4.47;2.60;;;19.00;35.60;;;;;;5112941;28;20415;-35
2022/02/14 12:38:08;;;;;;;3.73;2.10;;;18.80;36.00;;;;;;5113378;28;20424;-43
2022/02/14 12:40:48;;;;;;;3.20;2.80;;;18.90;36.70;;;;;;5116677;28;20443;-43
2022/02/14 12:43:44;;;;;;;3.23;2.40;;;20.00;35.90;;;;;;5118119;28;20785;-41
2022/02/14 12:46:22;;;;;;;4.50;2.40;;;20.30;34.50;;;;;;5114759;28;20511;-44
2022/02/14 12:48:55;;;;;;;4.23;2.20;;;19.40;34.90;;;;;;5116212;28;20414;-39
2022/02/14 12:51:26;;;;;;;4.17;2.10;;;17.80;35.90;;;;;;5114471;28;20423;-45
2022/02/14 12:53:53;;;;;;;2.53;1.70;;;17.10;37.70;;;;;;5097472;28;20434;-39
2022/02/14 12:56:27;;;;;;;5.30;2.50;;;16.50;39.00;;;;;;5116125;28;20406;-41
2022/02/14 12:58:55;;;;;;;3.77;1.93;;;15.80;39.70;;;;;;5113843;28;20799;-44
2022/02/14 13:01:26;;;;;;;5.87;2.17;;;15.40;40.30;;;;;;5113626;28;20410;-41